Time;durP1;ratioP1;P1;durP2;ratioP2;P2;SDS_P1;SDS_P2;PMS_P1;PMS_P2;Temp;Humidity;BMP_temperature;BMP_pressure;BME280_temperature;BME280_humidity;BME280_pressure;Samples;Min_cycle;Max_cycle;Signal;HPM_P1;HPM_P2
2022/06/25 00:02:21;;;;;;;4.80;3.60;;;;;;;;;;5064185;28;20424;-71
2022/06/25 00:07:32;;;;;;;6.00;4.00;;;;;;;;;;5061176;28;20409;-71
2022/06/25 00:09:59;;;;;;;4.45;4.05;;;;;;;;;;5062784;28;20441;-73
2022/06/25 00:12:34;;;;;;;4.80;4.40;;;;;;;;;;5059499;28;20425;-70
2022/06/25 00:15:02;;;;;;;4.75;4.40;;;;;;;;;;5050788;28;20868;-71
2022/06/25 00:17:29;;;;;;;5.10;4.60;;;;;;;;;;5064820;28;21986;-71
2022/06/25 00:19:56;;;;;;;4.40;4.10;;;;;;;;;;5062748;28;21188;-71
2022/06/25 00:22:23;;;;;;;4.55;4.20;;;;;;;;;;5058436;28;20641;-70
2022/06/25 00:24:50;;;;;;;4.30;4.00;;;;;;;;;;5061439;28;21117;-70
2022/06/25 00:27:17;;;;;;;4.70;4.30;;;;;;;;;;5061179;28;20781;-71
2022/06/25 00:29:45;;;;;;;4.57;4.28;;;;;;;;;;5059161;28;20424;-71
2022/06/25 00:32:13;;;;;;;3.78;3.47;;;;;;;;;;5052813;28;20441;-71
2022/06/25 00:34:40;;;;;;;4.30;4.00;;;;;;;;;;5061804;28;20435;-71
2022/06/25 00:37:07;;;;;;;4.50;4.10;;;;;;;;;;5049626;28;20431;-70
2022/06/25 00:39:34;;;;;;;4.10;3.80;;;;;;;;;;5057922;28;20951;-71
2022/06/25 00:42:01;;;;;;;5.03;3.67;;;;;;;;;;5059277;28;20450;-71
2022/06/25 00:44:30;;;;;;;3.80;3.50;;;;;;;;;;5053904;28;20435;-70
2022/06/25 00:46:58;;;;;;;3.90;3.60;;;;;;;;;;5058675;28;20450;-71
2022/06/25 00:49:25;;;;;;;3.80;3.50;;;;;;;;;;5059809;28;20800;-72
2022/06/25 00:51:53;;;;;;;4.80;3.80;;;;;;;;;;5062689;28;20433;-70
2022/06/25 00:54:21;;;;;;;3.88;3.53;;;;;;;;;;5070811;28;20420;-71
2022/06/25 00:56:50;;;;;;;3.95;3.40;;;;;;;;;;5086489;28;20419;-71
2022/06/25 00:59:20;;;;;;;3.60;3.30;;;;;;;;;;5081034;28;20476;-71
2022/06/25 01:01:47;;;;;;;3.55;3.15;;;;;;;;;;5078106;28;20439;-71
2022/06/25 01:04:15;;;;;;;3.70;3.40;;;;;;;;;;5079929;28;20408;-70
2022/06/25 01:06:43;;;;;;;3.90;3.60;;;;;;;;;;5081880;28;20430;-71
2022/06/25 01:09:10;;;;;;;3.97;3.67;;;;;;;;;;5076790;28;20427;-71
2022/06/25 01:11:38;;;;;;;3.90;3.50;;;;;;;;;;5087833;28;20395;-71
2022/06/25 01:14:08;;;;;;;3.90;3.60;;;;;;;;;;5077214;23;20440;-73
2022/06/25 01:16:36;;;;;;;3.60;3.20;;;;;;;;;;5039329;28;20427;-72
2022/06/25 01:19:06;;;;;;;5.40;3.30;;;;;;;;;;5041030;28;20437;-72
2022/06/25 01:21:35;;;;;;;3.65;3.30;;;;;;;;;;5039828;28;20433;-73
2022/06/25 01:24:04;;;;;;;3.90;3.60;;;;;;;;;;5034502;28;20431;-73
2022/06/25 01:26:33;;;;;;;3.60;3.30;;;;;;;;;;5041523;28;20784;-71
2022/06/25 01:29:01;;;;;;;3.30;3.10;;;;;;;;;;5043237;28;20437;-70
2022/06/25 01:31:28;;;;;;;4.13;3.30;;;;;;;;;;5044590;28;20509;-71
2022/06/25 01:33:55;;;;;;;3.90;3.50;;;;;;;;;;5041930;28;20516;-71
2022/06/25 01:36:23;;;;;;;3.40;3.10;;;;;;;;;;5042979;28;20444;-73
2022/06/25 01:38:50;;;;;;;4.25;3.85;;;;;;;;;;5041364;28;20429;-72
2022/06/25 01:41:18;;;;;;;4.22;3.90;;;;;;;;;;5043846;28;20892;-70
2022/06/25 01:43:45;;;;;;;4.20;3.80;;;;;;;;;;5039574;28;20892;-72
2022/06/25 01:46:13;;;;;;;4.30;3.90;;;;;;;;;;5037602;28;20433;-71
2022/06/25 01:48:40;;;;;;;4.32;4.00;;;;;;;;;;5043482;28;20433;-71
2022/06/25 01:51:07;;;;;;;4.50;4.10;;;;;;;;;;5038326;28;20433;-72
2022/06/25 01:53:34;;;;;;;3.92;3.53;;;;;;;;;;5043105;28;20444;-73
2022/06/25 01:56:02;;;;;;;3.90;3.60;;;;;;;;;;5038127;28;20540;-73
2022/06/25 01:58:31;;;;;;;3.70;3.30;;;;;;;;;;5042292;28;20436;-71
2022/06/25 02:00:58;;;;;;;5.70;4.00;;;;;;;;;;5040085;28;20444;-74
2022/06/25 02:03:25;;;;;;;3.60;3.30;;;;;;;;;;5032564;28;20429;-71
2022/06/25 02:05:58;;;;;;;4.47;3.78;;;;;;;;;;5034394;28;20425;-72
2022/06/25 02:08:26;;;;;;;3.60;3.30;;;;;;;;;;5041793;28;20562;-73
2022/06/25 02:10:53;;;;;;;4.27;3.87;;;;;;;;;;5047691;28;20465;-71
2022/06/25 02:13:20;;;;;;;3.90;3.60;;;;;;;;;;5035927;28;20430;-70
2022/06/25 02:15:49;;;;;;;3.83;3.40;;;;;;;;;;5047577;28;20513;-72
2022/06/25 02:18:16;;;;;;;3.60;3.30;;;;;;;;;;5037592;28;20468;-71
2022/06/25 02:20:43;;;;;;;4.20;3.42;;;;;;;;;;5042580;28;20467;-73
2022/06/25 02:23:11;;;;;;;3.60;3.30;;;;;;;;;;5037978;28;20440;-71
2022/06/25 02:25:38;;;;;;;4.45;3.33;;;;;;;;;;5041379;28;20436;-73
2022/06/25 02:28:05;;;;;;;3.40;3.10;;;;;;;;;;5042270;28;20658;-72
2022/06/25 02:30:32;;;;;;;3.50;3.20;;;;;;;;;;5039510;28;20899;-73
2022/06/25 02:33:01;;;;;;;3.50;3.20;;;;;;;;;;5036220;28;20541;-73
2022/06/25 02:35:28;;;;;;;4.10;3.08;;;;;;;;;;5040612;28;20477;-71
2022/06/25 02:37:55;;;;;;;4.50;3.20;;;;;;;;;;5039044;28;20441;-72
2022/06/25 02:40:22;;;;;;;4.20;3.40;;;;;;;;;;5038108;28;20874;-72
2022/06/25 02:42:50;;;;;;;4.10;3.38;;;;;;;;;;5026787;28;20775;-72
2022/06/25 02:45:17;;;;;;;3.60;3.30;;;;;;;;;;5037305;28;20480;-72
2022/06/25 02:47:44;;;;;;;3.60;3.30;;;;;;;;;;5040072;28;20587;-72
2022/06/25 02:50:12;;;;;;;3.53;3.22;;;;;;;;;;5033027;28;20743;-72
2022/06/25 02:52:39;;;;;;;3.70;3.10;;;;;;;;;;5037049;28;20544;-72
2022/06/25 02:55:07;;;;;;;3.63;3.40;;;;;;;;;;5041324;28;20434;-71
2022/06/25 03:00:19;;;;;;;3.30;3.10;;;;;;;;;;5035306;28;21203;-73
2022/06/25 03:02:46;;;;;;;4.55;3.25;;;;;;;;;;5036766;28;20444;-71
2022/06/25 03:05:15;;;;;;;4.20;3.30;;;;;;;;;;5040375;28;20437;-71
2022/06/25 03:07:42;;;;;;;3.58;3.28;;;;;;;;;;5037130;28;20700;-71
2022/06/25 03:10:09;;;;;;;3.65;3.35;;;;;;;;;;5042548;28;20417;-70
2022/06/25 03:12:36;;;;;;;5.45;3.10;;;;;;;;;;5039707;28;20436;-73
2022/06/25 03:15:04;;;;;;;4.75;3.00;;;;;;;;;;5033753;28;20433;-72
2022/06/25 03:17:31;;;;;;;3.60;3.20;;;;;;;;;;5040024;28;20433;-72
2022/06/25 03:19:58;;;;;;;4.30;3.80;;;;;;;;;;5040809;28;20432;-70
2022/06/25 03:22:26;;;;;;;4.38;3.15;;;;;;;;;;5035553;28;20425;-71
2022/06/25 03:24:53;;;;;;;3.70;3.10;;;;;;;;;;5041002;28;20425;-71
2022/06/25 03:27:21;;;;;;;3.78;3.20;;;;;;;;;;5036799;28;20435;-71
2022/06/25 03:29:48;;;;;;;3.72;3.00;;;;;;;;;;5041015;28;20899;-70
2022/06/25 03:32:15;;;;;;;4.35;3.40;;;;;;;;;;5029562;28;20437;-71
2022/06/25 03:34:42;;;;;;;4.47;3.22;;;;;;;;;;5037383;28;20715;-71
2022/06/25 03:37:09;;;;;;;3.55;3.00;;;;;;;;;;5044962;28;20456;-71
2022/06/25 03:39:37;;;;;;;3.13;2.83;;;;;;;;;;5044714;28;20422;-73
2022/06/25 03:42:05;;;;;;;4.25;2.90;;;;;;;;;;5037996;28;20444;-71
2022/06/25 03:44:32;;;;;;;3.50;3.20;;;;;;;;;;5041102;28;20509;-71
2022/06/25 03:46:59;;;;;;;3.75;3.28;;;;;;;;;;5031062;28;20429;-71
2022/06/25 03:49:26;;;;;;;3.37;3.07;;;;;;;;;;5040796;28;20429;-72
2022/06/25 03:51:53;;;;;;;3.60;3.30;;;;;;;;;;5039040;28;20437;-71
2022/06/25 03:54:20;;;;;;;3.38;3.10;;;;;;;;;;5039660;28;20433;-73
2022/06/25 03:56:49;;;;;;;4.70;3.20;;;;;;;;;;5039630;28;20760;-70
2022/06/25 03:59:16;;;;;;;3.50;3.20;;;;;;;;;;5040335;28;20440;-73
2022/06/25 04:01:43;;;;;;;3.80;3.50;;;;;;;;;;5036382;28;20926;-71
2022/06/25 04:04:10;;;;;;;3.70;3.40;;;;;;;;;;5034832;28;20435;-72
2022/06/25 04:06:37;;;;;;;4.07;3.15;;;;;;;;;;5036059;28;20452;-72
2022/06/25 04:09:05;;;;;;;4.45;3.60;;;;;;;;;;5040607;28;20433;-73
2022/06/25 04:11:32;;;;;;;4.03;3.72;;;;;;;;;;5032976;28;20455;-72
2022/06/25 04:14:00;;;;;;;3.42;3.13;;;;;;;;;;5037552;28;20448;-73
2022/06/25 04:16:27;;;;;;;4.05;3.60;;;;;;;;;;5037163;28;20433;-73
2022/06/25 04:18:55;;;;;;;4.53;3.40;;;;;;;;;;5039236;28;20480;-71
2022/06/25 04:21:22;;;;;;;3.80;3.50;;;;;;;;;;5038512;28;20437;-72
2022/06/25 04:23:49;;;;;;;3.70;3.40;;;;;;;;;;5038851;28;20829;-72
2022/06/25 04:26:16;;;;;;;3.67;3.00;;;;;;;;;;5040839;28;20509;-71
2022/06/25 04:31:30;;;;;;;4.00;3.70;;;;;;;;;;5033643;28;20936;-71
2022/06/25 04:33:57;;;;;;;3.83;3.53;;;;;;;;;;5038513;28;20499;-71
2022/06/25 04:36:24;;;;;;;3.67;3.38;;;;;;;;;;5032498;28;20510;-73
2022/06/25 04:38:51;;;;;;;4.00;3.60;;;;;;;;;;5037348;28;20917;-73
2022/06/25 04:41:18;;;;;;;3.80;3.50;;;;;;;;;;5038091;28;20543;-73
2022/06/25 04:43:46;;;;;;;3.50;3.20;;;;;;;;;;5036989;28;20893;-70
2022/06/25 04:46:13;;;;;;;4.85;3.60;;;;;;;;;;5040880;28;20867;-72
2022/06/25 04:48:41;;;;;;;4.10;3.70;;;;;;;;;;5037677;28;20429;-73
2022/06/25 04:51:08;;;;;;;4.10;3.70;;;;;;;;;;5039530;28;20461;-72
2022/06/25 04:53:54;;;;;;;4.30;3.60;;;;;;;;;;5037924;28;20533;-73
2022/06/25 04:56:22;;;;;;;4.35;3.42;;;;;;;;;;5031035;28;20908;-72
2022/06/25 04:58:49;;;;;;;4.00;3.67;;;;;;;;;;5037930;28;20433;-73
2022/06/25 05:01:16;;;;;;;3.58;3.38;;;;;;;;;;5040933;28;20420;-73
2022/06/25 05:03:44;;;;;;;4.13;3.72;;;;;;;;;;5041886;28;20433;-73
2022/06/25 05:06:11;;;;;;;4.68;3.58;;;;;;;;;;5041913;28;20811;-72
2022/06/25 05:08:39;;;;;;;4.45;3.80;;;;;;;;;;5038792;28;20441;-73
2022/06/25 05:11:06;;;;;;;4.22;3.83;;;;;;;;;;5042622;28;20445;-73
2022/06/25 05:13:33;;;;;;;4.40;4.00;;;;;;;;;;5036113;28;20436;-73
2022/06/25 05:16:00;;;;;;;4.43;4.03;;;;;;;;;;5042554;28;20460;-73
2022/06/25 05:18:27;;;;;;;3.85;3.55;;;;;;;;;;5043858;28;20882;-71
2022/06/25 05:20:56;;;;;;;4.57;3.60;;;;;;;;;;5045491;28;20444;-71
2022/06/25 05:23:23;;;;;;;4.05;3.65;;;;;;;;;;5042519;28;20917;-71
2022/06/25 05:25:51;;;;;;;4.40;3.75;;;;;;;;;;5036466;28;20432;-71
2022/06/25 05:28:18;;;;;;;4.20;3.30;;;;;;;;;;5045112;28;20447;-71
2022/06/25 05:30:45;;;;;;;5.68;3.97;;;;;;;;;;5045793;28;20546;-72
2022/06/25 05:33:12;;;;;;;4.22;3.85;;;;;;;;;;5040428;28;20429;-71
2022/06/25 05:35:39;;;;;;;4.30;3.60;;;;;;;;;;5044759;28;20482;-73
2022/06/25 05:38:10;;;;;;;4.00;3.60;;;;;;;;;;5044088;28;20536;-70
2022/06/25 05:40:37;;;;;;;3.53;3.23;;;;;;;;;;5043668;28;20437;-72
2022/06/25 05:43:04;;;;;;;4.60;4.00;;;;;;;;;;5044097;28;20435;-71
2022/06/25 05:45:31;;;;;;;4.15;3.75;;;;;;;;;;5043429;28;20429;-70
2022/06/25 05:47:58;;;;;;;4.10;3.70;;;;;;;;;;5043187;28;21006;-70
2022/06/25 05:50:25;;;;;;;5.47;3.75;;;;;;;;;;5039272;28;20921;-71
2022/06/25 05:52:53;;;;;;;4.30;4.00;;;;;;;;;;5044050;28;20499;-70
2022/06/25 05:55:22;;;;;;;3.92;3.53;;;;;;;;;;5040882;28;20439;-70
2022/06/25 05:57:49;;;;;;;4.68;3.53;;;;;;;;;;5030128;28;20522;-70
2022/06/25 06:00:17;;;;;;;3.50;3.20;;;;;;;;;;5040075;28;20437;-69
2022/06/25 06:02:44;;;;;;;4.50;3.70;;;;;;;;;;5041355;28;20569;-71
2022/06/25 06:05:11;;;;;;;4.07;3.50;;;;;;;;;;5035459;28;20445;-70
2022/06/25 06:07:39;;;;;;;3.83;3.50;;;;;;;;;;5038634;28;20427;-67
2022/06/25 06:10:07;;;;;;;3.40;3.10;;;;;;;;;;5039076;28;20441;-67
2022/06/25 06:12:35;;;;;;;4.20;3.38;;;;;;;;;;5041450;28;20510;-70
2022/06/25 06:15:02;;;;;;;3.40;3.10;;;;;;;;;;5039470;28;20512;-69
2022/06/25 06:17:29;;;;;;;3.50;3.20;;;;;;;;;;5037739;28;20433;-68
2022/06/25 06:19:56;;;;;;;3.40;2.90;;;;;;;;;;5037855;28;20872;-70
2022/06/25 06:22:23;;;;;;;3.20;2.90;;;;;;;;;;5036946;28;20449;-68
2022/06/25 06:24:51;;;;;;;3.57;3.00;;;;;;;;;;5041559;28;20738;-71
2022/06/25 06:27:18;;;;;;;3.58;2.90;;;;;;;;;;5034775;28;20445;-70
2022/06/25 06:29:46;;;;;;;3.08;2.78;;;;;;;;;;5041542;28;20437;-70
2022/06/25 06:32:13;;;;;;;3.50;3.17;;;;;;;;;;5041375;28;20915;-68
2022/06/25 06:34:42;;;;;;;3.65;3.00;;;;;;;;;;5037032;28;20537;-68
2022/06/25 06:37:09;;;;;;;3.22;3.00;;;;;;;;;;5039460;28;20910;-69
2022/06/25 06:39:36;;;;;;;4.20;3.00;;;;;;;;;;5041526;28;20437;-70
2022/06/25 06:42:03;;;;;;;3.10;2.53;;;;;;;;;;5039233;28;20484;-68
2022/06/25 06:44:31;;;;;;;2.88;2.50;;;;;;;;;;5037952;28;20800;-68
2022/06/25 06:46:59;;;;;;;3.95;2.33;;;;;;;;;;5043467;28;20415;-69
2022/06/25 06:49:26;;;;;;;4.07;2.38;;;;;;;;;;5042552;28;20447;-69
2022/06/25 06:51:53;;;;;;;2.90;2.40;;;;;;;;;;5039623;28;20413;-68
2022/06/25 06:54:20;;;;;;;3.28;2.40;;;;;;;;;;5039611;28;21152;-68
2022/06/25 06:56:47;;;;;;;2.70;2.13;;;;;;;;;;5038498;28;20928;-68
2022/06/25 06:59:14;;;;;;;3.78;2.70;;;;;;;;;;5036257;28;20429;-67
2022/06/25 07:01:42;;;;;;;2.83;2.03;;;;;;;;;;5042069;28;20431;-69
2022/06/25 07:04:10;;;;;;;3.10;1.70;;;;;;;;;;5028970;28;20447;-70
2022/06/25 07:06:37;;;;;;;3.10;1.80;;;;;;;;;;5038211;28;20429;-69
2022/06/25 07:09:04;;;;;;;3.05;2.20;;;;;;;;;;5038415;28;20464;-68
2022/06/25 07:11:31;;;;;;;2.47;2.05;;;;;;;;;;5037902;28;20556;-70
2022/06/25 07:13:59;;;;;;;2.60;1.73;;;;;;;;;;5055324;23;20931;-66
2022/06/25 07:16:26;;;;;;;2.40;2.20;;;;;;;;;;5016062;28;20446;-68
2022/06/25 07:18:55;;;;;;;3.03;2.15;;;;;;;;;;5024579;28;20442;-68
2022/06/25 07:21:23;;;;;;;3.50;1.73;;;;;;;;;;5025186;28;20988;-67
2022/06/25 07:23:50;;;;;;;3.47;1.90;;;;;;;;;;5025998;28;20431;-68
2022/06/25 07:26:17;;;;;;;3.53;2.27;;;;;;;;;;5021830;28;20438;-66
2022/06/25 07:28:44;;;;;;;2.78;1.70;;;;;;;;;;5023990;28;20442;-65
2022/06/25 07:31:12;;;;;;;3.40;1.90;;;;;;;;;;5025275;28;20439;-66
2022/06/25 07:33:39;;;;;;;3.15;2.00;;;;;;;;;;5024467;28;20458;-70
2022/06/25 07:36:07;;;;;;;1.95;1.75;;;;;;;;;;5042756;28;20435;-64
2022/06/25 07:38:35;;;;;;;2.40;1.70;;;;;;;;;;5041382;28;20423;-66
2022/06/25 07:41:02;;;;;;;2.45;1.80;;;;;;;;;;5047363;28;20437;-64
2022/06/25 07:43:29;;;;;;;3.17;1.90;;;;;;;;;;5045257;28;20414;-64
2022/06/25 07:45:57;;;;;;;1.70;1.50;;;;;;;;;;5048549;28;20438;-67
2022/06/25 07:48:24;;;;;;;4.15;1.83;;;;;;;;;;5033418;28;20411;-65
2022/06/25 07:53:37;;;;;;;4.50;2.60;;;;;;;;;;5043137;28;20425;-68
2022/06/25 07:56:05;;;;;;;2.30;1.80;;;;;;;;;;5044186;28;20735;-66
2022/06/25 07:58:32;;;;;;;2.72;1.83;;;;;;;;;;5038882;28;20435;-66
2022/06/25 08:00:59;;;;;;;3.58;1.95;;;;;;;;;;5041772;28;20957;-65
2022/06/25 08:03:26;;;;;;;1.80;1.70;;;;;;;;;;5029018;28;20434;-65
2022/06/25 08:05:54;;;;;;;2.25;1.50;;;;;;;;;;5028838;28;20584;-68
2022/06/25 08:08:21;;;;;;;3.35;2.00;;;;;;;;;;5026896;28;20645;-66
2022/06/25 08:10:49;;;;;;;3.87;1.80;;;;;;;;;;5025414;28;20439;-65
2022/06/25 08:13:17;;;;;;;2.72;1.55;;;;;;;;;;5026857;28;20427;-64
2022/06/25 08:15:44;;;;;;;3.75;1.80;;;;;;;;;;5023884;28;20439;-63
2022/06/25 08:18:11;;;;;;;3.17;1.67;;;;;;;;;;5038316;28;20593;-74
2022/06/25 08:20:38;;;;;;;2.47;1.20;;;;;;;;;;5042524;28;20486;-73
2022/06/25 08:23:05;;;;;;;3.80;1.50;;;;;;;;;;5046399;28;20422;-71
2022/06/25 08:25:32;;;;;;;4.65;1.85;;;;;;;;;;5033153;28;20929;-71
2022/06/25 08:28:00;;;;;;;1.98;1.20;;;;;;;;;;5026374;28;20913;-70
2022/06/25 08:30:28;;;;;;;2.95;1.10;;;;;;;;;;5026686;28;20445;-71
2022/06/25 08:32:56;;;;;;;3.20;1.13;;;;;;;;;;5020511;28;20956;-72
2022/06/25 08:35:23;;;;;;;3.65;1.30;;;;;;;;;;5024209;28;20415;-72
2022/06/25 08:37:50;;;;;;;2.50;1.20;;;;;;;;;;5029412;28;20913;-69
2022/06/25 08:40:18;;;;;;;2.70;1.45;;;;;;;;;;5030156;28;20427;-70
2022/06/25 08:42:47;;;;;;;1.52;1.10;;;;;;;;;;5027774;28;20425;-72
2022/06/25 08:45:17;;;;;;;2.55;1.10;;;;;;;;;;5029921;28;20621;-70
2022/06/25 08:47:45;;;;;;;2.40;1.00;;;;;;;;;;5030553;28;20462;-71
2022/06/25 08:50:14;;;;;;;3.10;1.30;;;;;;;;;;5021411;28;20454;-71
2022/06/25 08:52:43;;;;;;;3.05;1.10;;;;;;;;;;5024730;28;20639;-70
2022/06/25 08:55:11;;;;;;;2.90;1.40;;;;;;;;;;5029262;28;20438;-69
2022/06/25 08:57:39;;;;;;;2.28;1.40;;;;;;;;;;5023847;28;20432;-70
2022/06/25 09:00:07;;;;;;;4.05;1.30;;;;;;;;;;5024756;28;20418;-71
2022/06/25 09:02:39;;;;;;;2.13;1.20;;;;;;;;;;5029157;28;20516;-71
2022/06/25 09:05:06;;;;;;;2.85;1.10;;;;;;;;;;5029785;28;20444;-71
2022/06/25 09:07:33;;;;;;;3.10;1.48;;;;;;;;;;5029078;28;20421;-70
2022/06/25 09:10:00;;;;;;;2.25;1.70;;;;;;;;;;5030093;28;20438;-70
2022/06/25 09:12:27;;;;;;;2.13;1.25;;;;;;;;;;5028080;28;20426;-69
2022/06/25 09:14:55;;;;;;;2.90;1.30;;;;;;;;;;5024541;28;20431;-68
2022/06/25 09:17:22;;;;;;;2.33;1.50;;;;;;;;;;5032462;28;20434;-70
2022/06/25 09:19:51;;;;;;;3.20;1.58;;;;;;;;;;5033051;28;20441;-69
2022/06/25 09:22:18;;;;;;;3.47;1.50;;;;;;;;;;5033072;28;20414;-69
2022/06/25 09:24:50;;;;;;;3.55;1.55;;;;;;;;;;5033698;28;20817;-68
2022/06/25 09:27:19;;;;;;;3.30;1.23;;;;;;;;;;5032302;28;20442;-68
2022/06/25 09:29:48;;;;;;;1.40;1.20;;;;;;;;;;5028872;28;20438;-71
2022/06/25 09:32:16;;;;;;;3.17;1.40;;;;;;;;;;5025296;28;20427;-70
2022/06/25 09:34:43;;;;;;;2.80;1.30;;;;;;;;;;5031924;28;20422;-70
2022/06/25 09:37:21;;;;;;;1.90;1.40;;;;;;;;;;5032982;28;20426;-68
2022/06/25 09:39:50;;;;;;;2.50;1.20;;;;;;;;;;5031578;28;20430;-70
2022/06/25 09:42:24;;;;;;;2.60;1.23;;;;;;;;;;5028623;28;20855;-68
2022/06/25 09:44:58;;;;;;;1.80;1.40;;;;;;;;;;5029627;28;20419;-69
2022/06/25 09:47:26;;;;;;;4.30;1.60;;;;;;;;;;5030534;28;20431;-70
2022/06/25 09:50:03;;;;;;;2.80;1.30;;;;;;;;;;5031973;28;20426;-68
2022/06/25 09:52:31;;;;;;;2.55;1.58;;;;;;;;;;5024331;28;20435;-69
2022/06/25 09:54:59;;;;;;;3.30;1.90;;;;;;;;;;5030578;28;20431;-68
2022/06/25 09:57:26;;;;;;;2.50;1.57;;;;;;;;;;5031283;28;20431;-69
2022/06/25 09:59:54;;;;;;;2.03;1.60;;;;;;;;;;5030786;28;20426;-70
2022/06/25 10:02:21;;;;;;;2.35;1.38;;;;;;;;;;5030103;28;20435;-72
2022/06/25 10:04:50;;;;;;;3.10;1.50;;;;;;;;;;5031624;28;20901;-71
2022/06/25 10:07:17;;;;;;;2.22;1.40;;;;;;;;;;5030049;28;20849;-69
2022/06/25 10:09:47;;;;;;;1.90;1.70;;;;;;;;;;5025355;28;20435;-68
2022/06/25 10:12:14;;;;;;;2.40;1.20;;;;;;;;;;5028201;28;20435;-71
2022/06/25 10:14:42;;;;;;;3.00;1.10;;;;;;;;;;5027320;28;20461;-70
2022/06/25 10:17:09;;;;;;;2.50;1.00;;;;;;;;;;5027224;28;20438;-71
2022/06/25 10:19:36;;;;;;;1.75;1.33;;;;;;;;;;5022851;28;20808;-72
2022/06/25 10:22:04;;;;;;;1.80;1.10;;;;;;;;;;5027874;28;20441;-70
2022/06/25 10:24:31;;;;;;;2.55;1.20;;;;;;;;;;5027740;28;20435;-70
2022/06/25 10:27:00;;;;;;;1.17;0.98;;;;;;;;;;5026973;28;20538;-70
2022/06/25 10:29:28;;;;;;;2.30;1.20;;;;;;;;;;5016830;28;20459;-70
2022/06/25 10:32:10;;;;;;;2.50;1.30;;;;;;;;;;5026406;28;20434;-71
2022/06/25 10:34:37;;;;;;;2.30;1.20;;;;;;;;;;5028065;28;20442;-73
2022/06/25 10:37:05;;;;;;;1.60;1.10;;;;;;;;;;5030126;28;21133;-71
2022/06/25 10:39:36;;;;;;;3.60;1.30;;;;;;;;;;5029732;28;20423;-73
2022/06/25 10:45:27;;;;;;;2.17;1.10;;;;;;;;;;5021423;28;20449;-72
2022/06/25 10:47:57;;;;;;;1.92;1.30;;;;;;;;;;5027748;28;20431;-75
2022/06/25 10:50:31;;;;;;;1.70;1.30;;;;;;;;;;5045605;28;20428;-71
2022/06/25 10:53:17;;;;;;;2.03;1.40;;;;;;;;;;5050186;28;20498;-73
2022/06/25 10:55:59;;;;;;;2.20;1.20;;;;;;;;;;5053516;28;20427;-72
2022/06/25 10:58:27;;;;;;;2.60;1.40;;;;;;;;;;5047057;28;20469;-71
2022/06/25 11:00:55;;;;;;;1.80;1.30;;;;;;;;;;5025703;28;20429;-73
2022/06/25 11:03:37;;;;;;;1.85;1.50;;;;;;;;;;5027304;28;20517;-72
2022/06/25 11:06:19;;;;;;;3.17;1.35;;;;;;;;;;5023767;28;20461;-72
2022/06/25 11:08:46;;;;;;;1.60;1.20;;;;;;;;;;5028931;28;20423;-71
2022/06/25 11:11:14;;;;;;;2.25;1.30;;;;;;;;;;5028420;28;20921;-72
2022/06/25 11:13:41;;;;;;;2.40;1.10;;;;;;;;;;5028550;28;20463;-73
2022/06/25 11:16:15;;;;;;;1.83;1.30;;;;;;;;;;5039357;28;20411;-73
2022/06/25 11:18:47;;;;;;;2.30;1.30;;;;;;;;;;5041130;28;20431;-72
2022/06/25 11:21:26;;;;;;;1.77;1.08;;;;;;;;;;5025034;28;20439;-72
2022/06/25 11:23:53;;;;;;;2.00;1.30;;;;;;;;;;5035775;28;20427;-73
2022/06/25 11:29:05;;;;;;;2.10;1.50;;;;;;;;;;5033807;28;20434;-74
2022/06/25 11:31:34;;;;;;;1.77;1.15;;;;;;;;;;5030659;28;20419;-73
2022/06/25 11:34:02;;;;;;;1.30;1.20;;;;;;;;;;5030867;28;20446;-74
2022/06/25 11:36:34;;;;;;;3.40;1.40;;;;;;;;;;5029360;28;20418;-74
2022/06/25 11:39:01;;;;;;;2.28;1.40;;;;;;;;;;5030779;28;20430;-73
2022/06/25 11:41:30;;;;;;;3.00;1.60;;;;;;;;;;5031995;28;20434;-72
2022/06/25 11:44:05;;;;;;;2.33;1.35;;;;;;;;;;5030522;28;20422;-75
2022/06/25 11:46:34;;;;;;;2.33;1.40;;;;;;;;;;5026298;28;20535;-74
2022/06/25 11:49:04;;;;;;;2.10;1.30;;;;;;;;;;5021331;28;20904;-73
2022/06/25 11:51:33;;;;;;;1.55;1.30;;;;;;;;;;5027524;28;20626;-73
2022/06/25 11:54:05;;;;;;;2.92;1.20;;;;;;;;;;5028298;28;20426;-73
2022/06/25 11:56:32;;;;;;;2.50;1.30;;;;;;;;;;5029023;28;20433;-73
2022/06/25 11:58:59;;;;;;;1.67;1.45;;;;;;;;;;5028489;28;20924;-74
2022/06/25 12:01:29;;;;;;;2.75;1.27;;;;;;;;;;5027056;28;20438;-74
2022/06/25 12:03:56;;;;;;;1.95;1.33;;;;;;;;;;5025302;28;20853;-74
2022/06/25 12:06:23;;;;;;;1.90;1.40;;;;;;;;;;5014893;28;20411;-75
2022/06/25 12:08:52;;;;;;;1.90;1.35;;;;;;;;;;5027297;28;20442;-75
2022/06/25 12:11:19;;;;;;;1.53;1.17;;;;;;;;;;5027948;28;20429;-74
2022/06/25 12:13:47;;;;;;;1.95;1.10;;;;;;;;;;5027287;28;20824;-75
2022/06/25 12:16:14;;;;;;;1.80;1.10;;;;;;;;;;5026195;28;20442;-75
2022/06/25 12:18:41;;;;;;;1.73;1.10;;;;;;;;;;5025880;28;20449;-75
2022/06/25 12:21:09;;;;;;;2.10;1.00;;;;;;;;;;5023355;28;20419;-73
2022/06/25 12:23:54;;;;;;;1.33;1.00;;;;;;;;;;5025404;28;20439;-75
2022/06/25 12:26:27;;;;;;;1.50;1.00;;;;;;;;;;5027630;28;20502;-75
2022/06/25 12:28:54;;;;;;;2.67;1.10;;;;;;;;;;5027561;28;20453;-76
2022/06/25 12:31:22;;;;;;;2.42;1.20;;;;;;;;;;5024299;28;20434;-75
2022/06/25 12:33:50;;;;;;;1.80;1.37;;;;;;;;;;5027981;28;20847;-76
2022/06/25 12:36:18;;;;;;;1.50;1.00;;;;;;;;;;5026406;28;20647;-75
2022/06/25 12:38:45;;;;;;;1.10;0.80;;;;;;;;;;5027448;28;20936;-76
2022/06/25 12:41:12;;;;;;;1.85;0.95;;;;;;;;;;5027873;28;20430;-75
2022/06/25 12:43:47;;;;;;;1.50;0.90;;;;;;;;;;5024090;28;20434;-76
2022/06/25 12:46:15;;;;;;;1.90;0.90;;;;;;;;;;5026107;28;20434;-75
2022/06/25 12:48:42;;;;;;;1.85;0.90;;;;;;;;;;5027689;28;20905;-76
2022/06/25 12:51:10;;;;;;;1.50;0.80;;;;;;;;;;5026994;28;20458;-75
2022/06/25 12:53:38;;;;;;;1.33;0.90;;;;;;;;;;5026429;28;20438;-69
2022/06/25 12:56:05;;;;;;;1.67;0.90;;;;;;;;;;5025465;28;20950;-70
2022/06/25 12:58:36;;;;;;;2.35;0.93;;;;;;;;;;5027264;28;20853;-69
2022/06/25 13:01:17;;;;;;;1.23;0.70;;;;;;;;;;5025931;28;20449;-70
2022/06/25 13:03:45;;;;;;;1.17;0.80;;;;;;;;;;5027441;28;20423;-70
2022/06/25 13:06:12;;;;;;;1.67;0.95;;;;;;;;;;5028317;28;20948;-69
2022/06/25 13:08:40;;;;;;;1.70;1.00;;;;;;;;;;5030226;28;20431;-71
2022/06/25 13:11:07;;;;;;;1.80;1.00;;;;;;;;;;5028544;28;20423;-67
2022/06/25 13:13:34;;;;;;;1.50;1.00;;;;;;;;;;5027412;28;20427;-69
2022/06/25 13:16:04;;;;;;;1.10;0.80;;;;;;;;;;5045475;22;20460;-71
2022/06/25 13:18:32;;;;;;;1.60;1.00;;;;;;;;;;5023000;28;20445;-71
2022/06/25 13:21:01;;;;;;;2.20;1.00;;;;;;;;;;5022057;28;20457;-72
2022/06/25 13:23:28;;;;;;;2.50;0.95;;;;;;;;;;5025401;28;20858;-71
2022/06/25 13:25:55;;;;;;;1.60;1.00;;;;;;;;;;5025053;28;20423;-72
2022/06/25 13:28:22;;;;;;;3.40;0.90;;;;;;;;;;5026286;28;20431;-71
2022/06/25 13:30:49;;;;;;;1.90;0.80;;;;;;;;;;5023300;28;20446;-72
2022/06/25 13:33:17;;;;;;;1.58;0.90;;;;;;;;;;5027058;28;20495;-72
2022/06/25 13:35:45;;;;;;;2.80;1.10;;;;;;;;;;5022903;28;20777;-74
2022/06/25 13:38:12;;;;;;;1.60;0.90;;;;;;;;;;5023291;28;20574;-73
2022/06/25 13:40:39;;;;;;;1.65;1.00;;;;;;;;;;5027222;28;20442;-73
2022/06/25 13:43:07;;;;;;;2.28;1.08;;;;;;;;;;5026588;28;20860;-72
2022/06/25 13:45:34;;;;;;;1.80;1.10;;;;;;;;;;5026663;28;20449;-73
2022/06/25 13:48:01;;;;;;;1.58;0.80;;;;;;;;;;5020962;28;20477;-70
2022/06/25 13:50:29;;;;;;;1.93;1.00;;;;;;;;;;5019589;28;20427;-70
2022/06/25 13:52:58;;;;;;;2.30;1.20;;;;;;;;;;5024076;28;20438;-73
2022/06/25 13:55:25;;;;;;;2.40;0.90;;;;;;;;;;5025375;28;20435;-74
2022/06/25 13:57:52;;;;;;;3.30;1.40;;;;;;;;;;5026302;28;20465;-73
2022/06/25 14:00:19;;;;;;;1.48;0.90;;;;;;;;;;5022909;28;20446;-74
2022/06/25 14:02:46;;;;;;;1.40;0.85;;;;;;;;;;5024659;28;20530;-73
2022/06/25 14:05:13;;;;;;;1.50;0.90;;;;;;;;;;5026810;28;20498;-74
2022/06/25 14:07:40;;;;;;;1.33;1.00;;;;;;;;;;5026575;28;20472;-74
2022/06/25 14:10:12;;;;;;;1.20;0.87;;;;;;;;;;5022486;28;20442;-73
2022/06/25 14:12:39;;;;;;;1.35;0.90;;;;;;;;;;5023217;28;20438;-73
2022/06/25 14:15:07;;;;;;;1.52;1.10;;;;;;;;;;5022027;28;20437;-72
2022/06/25 14:17:34;;;;;;;2.60;1.00;;;;;;;;;;5023340;28;20435;-73
2022/06/25 14:20:02;;;;;;;2.03;0.90;;;;;;;;;;5025092;28;20435;-74
2022/06/25 14:22:29;;;;;;;2.58;1.20;;;;;;;;;;5023480;28;20457;-73
2022/06/25 14:27:43;;;;;;;1.88;1.00;;;;;;;;;;5022440;28;20406;-73
2022/06/25 14:30:10;;;;;;;1.30;1.00;;;;;;;;;;5020680;28;20440;-73
2022/06/25 14:32:37;;;;;;;2.00;0.80;;;;;;;;;;5019238;28;20438;-73
2022/06/25 14:35:05;;;;;;;2.10;0.80;;;;;;;;;;5025437;28;20423;-73
2022/06/25 14:43:03;;;;;;;1.83;1.10;;;;;;;;;;5019647;28;20418;-71
2022/06/25 14:45:30;;;;;;;1.90;0.93;;;;;;;;;;5019679;28;20534;-72
2022/06/25 14:47:57;;;;;;;1.53;1.00;;;;;;;;;;5024271;28;20439;-72
2022/06/25 14:50:24;;;;;;;1.20;1.00;;;;;;;;;;5025380;28;20866;-72
2022/06/25 14:52:51;;;;;;;2.20;1.10;;;;;;;;;;5024547;28;20427;-72
2022/06/25 14:55:18;;;;;;;1.65;1.00;;;;;;;;;;5025760;28;20418;-72
2022/06/25 14:57:46;;;;;;;1.50;1.10;;;;;;;;;;5024882;28;20587;-72
2022/06/25 15:00:14;;;;;;;1.88;1.10;;;;;;;;;;5021212;28;20519;-72
2022/06/25 15:02:45;;;;;;;1.00;0.90;;;;;;;;;;5022327;28;20439;-73
2022/06/25 15:05:13;;;;;;;1.63;1.00;;;;;;;;;;5024170;28;20437;-73
2022/06/25 15:07:40;;;;;;;1.30;0.90;;;;;;;;;;5024676;28;20426;-72
2022/06/25 15:10:07;;;;;;;1.05;0.90;;;;;;;;;;5024123;28;20430;-72
2022/06/25 15:12:35;;;;;;;2.00;1.10;;;;;;;;;;5024177;28;21270;-72
2022/06/25 15:15:02;;;;;;;0.95;0.80;;;;;;;;;;5023570;28;20469;-72